createdAt,value
2023-01-18T00:01:50.708Z,7.35
2023-01-18T00:04:36.510Z,7.70
2023-01-18T00:07:23.698Z,7.22
2023-01-18T00:10:10.532Z,7.85
2023-01-18T00:12:58.050Z,7.43
2023-01-18T00:15:43.573Z,7.78
2023-01-18T00:18:29.401Z,6.80
2023-01-18T00:21:15.042Z,7.95
2023-01-18T00:24:02.394Z,7.50
2023-01-18T00:26:48.786Z,7.38
2023-01-18T00:29:34.387Z,7.45
2023-01-18T00:32:20.086Z,7.70
2023-01-18T00:35:07.916Z,7.85
2023-01-18T00:37:54.478Z,7.53
2023-01-18T00:40:41.904Z,7.50
2023-01-18T00:43:39.669Z,7.68
2023-01-18T00:46:29.518Z,7.93
2023-01-18T00:49:14.916Z,8.63
2023-01-18T00:52:00.526Z,8.85
2023-01-18T00:54:46.247Z,8.60
2023-01-18T00:57:33.401Z,9.30
2023-01-18T01:00:19.263Z,8.32
2023-01-18T01:03:05.435Z,9.10
2023-01-18T01:06:09.532Z,9.43
2023-01-18T01:08:55.182Z,9.18
2023-01-18T01:12:01.109Z,9.10
2023-01-18T01:15:07.969Z,9.40
2023-01-18T01:18:12.355Z,9.38
2023-01-18T01:21:16.672Z,9.57
2023-01-18T01:24:20.727Z,10.30
2023-01-18T01:27:06.985Z,10.13
2023-01-18T01:29:56.790Z,10.23
2023-01-18T01:32:42.702Z,10.43
2023-01-18T01:35:28.221Z,9.50
2023-01-18T01:38:13.876Z,11.02
2023-01-18T01:41:05.219Z,10.50
2023-01-18T01:43:52.904Z,10.95
2023-01-18T01:46:46.128Z,10.38
2023-01-18T01:49:35.020Z,11.40
2023-01-18T01:52:24.507Z,10.35
2023-01-18T01:55:14.953Z,11.32
2023-01-18T01:58:05.008Z,11.57
2023-01-18T02:00:53.382Z,10.30
2023-01-18T02:03:42.773Z,10.63
2023-01-18T02:06:34.078Z,10.10
2023-01-18T02:12:09.157Z,10.98
2023-01-18T02:14:55.752Z,11.10
2023-01-18T02:18:06.661Z,11.25
2023-01-18T02:21:11.896Z,11.23
2023-01-18T02:24:25.591Z,10.65
2023-01-18T02:27:21.008Z,11.05
2023-01-18T02:30:16.244Z,10.40
2023-01-18T02:33:07.204Z,10.95
2023-01-18T02:38:44.436Z,10.93
2023-01-18T02:41:52.803Z,11.18
2023-01-18T02:45:02.072Z,9.93
2023-01-18T02:47:50.083Z,10.15
2023-01-18T02:50:35.620Z,10.40
2023-01-18T02:53:21.438Z,10.25
2023-01-18T02:56:11.031Z,10.63
2023-01-18T02:59:01.883Z,10.43
2023-01-18T03:01:51.904Z,9.90
2023-01-18T03:04:43.678Z,10.47
2023-01-18T03:07:35.721Z,9.57
2023-01-18T03:10:24.840Z,9.30
2023-01-18T03:13:16.250Z,10.63
2023-01-18T03:16:09.478Z,10.27
2023-01-18T03:19:00.504Z,9.40
2023-01-18T03:21:51.392Z,9.25
2023-01-18T03:24:41.270Z,10.27
2023-01-18T03:27:45.123Z,9.18
2023-01-18T03:30:51.358Z,10.18
2023-01-18T03:33:47.409Z,8.63
2023-01-18T03:36:38.697Z,8.93
2023-01-18T03:39:30.720Z,9.05
2023-01-18T03:42:21.343Z,9.80
2023-01-18T03:45:12.547Z,9.15
2023-01-18T03:47:58.200Z,9.32
2023-01-18T03:50:49.595Z,8.93
2023-01-18T03:53:41.420Z,9.63
2023-01-18T03:56:34.663Z,8.60
2023-01-18T03:59:21.656Z,7.95
2023-01-18T04:02:08.862Z,8.55
2023-01-18T04:04:57.675Z,8.63
2023-01-18T04:07:43.650Z,9.05
2023-01-18T04:10:29.215Z,8.10
2023-01-18T04:13:16.019Z,9.25
2023-01-18T04:16:01.775Z,8.90
2023-01-18T04:18:47.765Z,9.48
2023-01-18T04:21:33.211Z,9.15
2023-01-18T04:24:18.732Z,9.32
2023-01-18T04:27:04.563Z,9.45
2023-01-18T04:29:51.944Z,9.15
2023-01-18T04:32:37.768Z,9.73
2023-01-18T04:35:23.431Z,9.38
2023-01-18T04:38:09.305Z,9.70
2023-01-18T04:40:55.145Z,9.43
2023-01-18T04:43:40.708Z,10.00
2023-01-18T04:46:27.600Z,10.65
2023-01-18T04:49:15.600Z,10.75
2023-01-18T04:52:01.255Z,10.73
2023-01-18T04:54:47.238Z,10.60
2023-01-18T04:57:33.406Z,10.18
2023-01-18T05:00:19.525Z,9.82
2023-01-18T05:03:07.164Z,9.55
2023-01-18T05:05:54.394Z,9.73
2023-01-18T05:08:43.243Z,9.60
2023-01-18T05:11:28.633Z,10.02
2023-01-18T05:14:14.411Z,10.07
2023-01-18T05:16:59.921Z,9.55
2023-01-18T05:19:48.421Z,9.80
2023-01-18T05:22:34.300Z,11.60
2023-01-18T05:25:19.984Z,9.88
2023-01-18T05:28:07.014Z,10.75
2023-01-18T05:30:54.731Z,11.02
2023-01-18T05:33:41.026Z,9.90
2023-01-18T05:36:28.878Z,10.82
2023-01-18T05:39:15.064Z,10.82
2023-01-18T05:42:01.093Z,10.85
2023-01-18T05:44:47.390Z,11.77
2023-01-18T05:47:33.349Z,10.45
2023-01-18T05:50:19.063Z,10.80
2023-01-18T05:53:06.396Z,10.38
2023-01-18T05:55:56.783Z,10.38
2023-01-18T05:58:42.252Z,10.85
2023-01-18T06:01:28.706Z,9.57
2023-01-18T06:04:14.226Z,9.77
2023-01-18T06:07:00.135Z,10.18
2023-01-18T06:09:47.094Z,9.43
2023-01-18T06:12:32.574Z,10.50
2023-01-18T06:15:18.685Z,9.68
2023-01-18T06:18:04.764Z,9.73
2023-01-18T06:20:54.345Z,9.45
2023-01-18T06:23:39.774Z,9.95
2023-01-18T06:26:27.070Z,9.07
2023-01-18T06:29:12.618Z,9.27
2023-01-18T06:31:58.659Z,9.35
2023-01-18T06:34:44.578Z,9.13
2023-01-18T06:37:30.415Z,8.85
2023-01-18T06:40:16.444Z,9.07
2023-01-18T06:43:03.483Z,9.05
2023-01-18T06:45:52.879Z,8.18
2023-01-18T06:48:38.856Z,8.82
2023-01-18T06:51:24.582Z,8.75
2023-01-18T06:54:10.836Z,9.00
2023-01-18T06:56:56.507Z,9.00
2023-01-18T06:59:43.553Z,9.45
2023-01-18T07:02:29.294Z,8.98
2023-01-18T07:05:14.984Z,9.75
2023-01-18T07:08:00.248Z,13.00
2023-01-18T07:10:46.297Z,14.85
2023-01-18T07:13:32.121Z,12.32
2023-01-18T07:16:21.111Z,9.13
2023-01-18T07:19:07.169Z,9.27
2023-01-18T07:21:55.772Z,10.18
2023-01-18T07:24:41.266Z,8.68
2023-01-18T07:27:27.059Z,9.02
2023-01-18T07:30:13.237Z,9.80
2023-01-18T07:33:00.681Z,8.85
2023-01-18T07:35:47.088Z,9.13
2023-01-18T07:38:33.800Z,8.93
2023-01-18T07:41:19.789Z,8.32
2023-01-18T07:44:06.007Z,9.52
2023-01-18T07:46:51.690Z,8.48
2023-01-18T07:49:38.506Z,8.95
2023-01-18T07:52:24.480Z,8.90
2023-01-18T07:55:10.222Z,9.23
2023-01-18T07:57:56.007Z,9.00
2023-01-18T08:00:41.810Z,8.85
2023-01-18T08:03:27.618Z,8.68
2023-01-18T08:06:18.826Z,9.32
2023-01-18T08:09:04.697Z,9.80
2023-01-18T08:11:50.384Z,9.52
2023-01-18T08:14:36.220Z,9.85
2023-01-18T08:17:22.268Z,9.30
2023-01-18T08:20:09.460Z,10.32
2023-01-18T08:22:58.438Z,10.13
2023-01-18T08:25:45.314Z,11.20
2023-01-18T08:28:31.327Z,11.80
2023-01-18T08:31:22.378Z,11.73
2023-01-18T08:36:54.344Z,9.40
2023-01-18T08:39:41.640Z,10.63
2023-01-18T08:42:27.337Z,10.70
2023-01-18T08:45:13.268Z,10.55
2023-01-18T08:48:00.338Z,11.90
2023-01-18T08:50:47.139Z,10.43
2023-01-18T08:53:32.871Z,11.25
2023-01-18T08:56:21.198Z,11.20
2023-01-18T08:59:08.520Z,12.27
2023-01-18T09:01:54.236Z,10.82
2023-01-18T09:04:39.695Z,12.57
2023-01-18T09:07:25.699Z,12.10
2023-01-18T09:10:11.656Z,11.98
2023-01-18T09:12:58.894Z,11.32
2023-01-18T09:15:46.926Z,11.30
2023-01-18T09:18:33.070Z,10.98
2023-01-18T09:21:18.604Z,11.15
2023-01-18T09:24:04.860Z,10.27
2023-01-18T09:26:51.541Z,11.10
2023-01-18T09:29:38.367Z,9.82
2023-01-18T09:32:25.523Z,10.55
2023-01-18T09:35:11.174Z,9.95
2023-01-18T09:37:58.077Z,10.05
2023-01-18T09:40:45.072Z,8.75
2023-01-18T09:43:39.040Z,8.98
2023-01-18T09:46:28.109Z,8.52
2023-01-18T09:49:18.913Z,8.95
2023-01-18T09:52:32.667Z,8.55
2023-01-18T09:55:24.792Z,8.18
2023-01-18T09:58:25.761Z,8.07
2023-01-18T10:01:16.199Z,8.40
2023-01-18T10:04:08.744Z,8.07
2023-01-18T10:06:58.832Z,8.35
2023-01-18T10:09:51.156Z,8.27
2023-01-18T10:12:41.337Z,8.63
2023-01-18T10:15:34.387Z,8.30
2023-01-18T10:18:20.189Z,8.07
2023-01-18T10:21:07.959Z,7.78
2023-01-18T10:24:20.098Z,7.90
2023-01-18T10:27:35.885Z,7.07
2023-01-18T10:30:45.929Z,8.10
2023-01-18T10:33:35.969Z,8.63
2023-01-18T10:36:26.379Z,8.13
2023-01-18T10:39:27.969Z,6.03
2023-01-18T10:45:03.948Z,8.10
2023-01-18T10:47:50.401Z,6.57
2023-01-18T10:50:38.819Z,9.10
2023-01-18T10:53:31.854Z,7.70
2023-01-18T15:53:56.346Z,4.90
2023-01-18T15:56:42.450Z,3.50
2023-01-18T15:59:29.619Z,3.92
2023-01-18T16:02:19.110Z,3.95
2023-01-18T16:05:19.823Z,3.83
2023-01-18T16:08:18.377Z,4.00
2023-01-18T16:11:04.285Z,4.00
2023-01-18T16:13:57.049Z,3.88
2023-01-18T16:16:44.352Z,3.75
2023-01-18T16:19:34.751Z,3.90
2023-01-18T16:22:24.656Z,4.53
2023-01-18T16:25:11.383Z,3.60
2023-01-18T16:28:00.078Z,3.72
2023-01-18T16:30:50.849Z,4.65
2023-01-18T16:33:38.174Z,3.72
2023-01-18T16:36:25.697Z,3.63
2023-01-18T16:39:11.326Z,3.60
2023-01-18T16:41:58.267Z,3.80
2023-01-18T16:44:46.479Z,3.60
2023-01-18T16:47:32.382Z,3.58
2023-01-18T16:50:19.472Z,3.80
2023-01-18T16:53:05.447Z,4.80
2023-01-18T16:55:51.779Z,4.15
2023-01-18T16:58:37.653Z,4.45
2023-01-18T17:01:23.482Z,3.35
2023-01-18T17:04:11.604Z,3.58
2023-01-18T17:06:58.385Z,3.50
2023-01-18T17:09:48.851Z,3.40
2023-01-18T17:12:35.161Z,3.78
2023-01-18T17:15:20.970Z,3.75
2023-01-18T17:18:08.311Z,5.10
2023-01-18T17:20:55.216Z,5.60
2023-01-18T17:23:42.493Z,3.92
2023-01-18T17:26:27.892Z,3.97
2023-01-18T17:29:17.733Z,3.63
2023-01-18T17:32:03.689Z,5.03
2023-01-18T17:34:49.578Z,3.60
2023-01-18T17:37:35.659Z,4.50
2023-01-18T17:40:28.232Z,4.03
2023-01-18T17:43:32.021Z,4.20
2023-01-18T17:46:19.479Z,4.53
2023-01-18T17:49:05.433Z,4.88
2023-01-18T17:51:51.380Z,4.40
2023-01-18T17:54:36.939Z,4.35
2023-01-18T17:57:24.156Z,5.03
2023-01-18T18:00:13.489Z,4.75
2023-01-18T18:03:01.126Z,5.03
2023-01-18T18:05:48.054Z,5.00
2023-01-18T18:08:37.075Z,5.15
2023-01-18T18:11:23.944Z,4.90
2023-01-18T18:14:11.267Z,5.05
2023-01-18T18:16:56.816Z,6.07
2023-01-18T18:19:42.876Z,5.65
2023-01-18T18:22:28.943Z,5.63
2023-01-18T18:25:14.823Z,4.97
2023-01-18T18:28:00.367Z,6.18
2023-01-18T18:30:49.115Z,5.25
2023-01-18T18:33:35.141Z,5.57
2023-01-18T18:36:22.152Z,5.95
2023-01-18T18:39:08.889Z,5.70
2023-01-18T18:41:54.970Z,5.50
2023-01-18T18:44:40.517Z,5.72
2023-01-18T18:47:28.017Z,5.53
2023-01-18T18:50:14.093Z,6.63
2023-01-18T18:53:00.352Z,6.05
2023-01-18T18:55:46.454Z,6.22
2023-01-18T18:58:33.190Z,6.18
2023-01-18T19:01:21.246Z,5.00
2023-01-18T19:04:09.437Z,5.88
2023-01-18T19:06:55.544Z,6.10
2023-01-18T19:09:41.666Z,5.85
2023-01-18T19:12:27.671Z,5.72
2023-01-18T19:15:13.601Z,5.97
2023-01-18T19:17:59.942Z,6.25
2023-01-18T19:20:49.715Z,6.32
2023-01-18T19:23:35.740Z,5.97
2023-01-18T19:26:21.548Z,7.47
2023-01-18T19:29:07.191Z,6.90
2023-01-18T19:31:54.707Z,6.45
2023-01-18T19:34:41.123Z,6.55
2023-01-18T19:37:28.295Z,6.43
2023-01-18T19:40:15.322Z,6.20
2023-01-18T19:43:01.373Z,6.38
2023-01-18T19:45:47.641Z,6.45
2023-01-18T19:48:34.419Z,6.68
2023-01-18T19:51:22.868Z,7.60
2023-01-18T19:54:11.140Z,7.68
2023-01-18T19:56:56.933Z,7.80
2023-01-18T19:59:42.465Z,7.65
2023-01-18T20:02:29.171Z,7.53
2023-01-18T20:05:14.837Z,6.43
2023-01-18T20:08:00.604Z,8.40
2023-01-18T20:10:48.214Z,7.68
2023-01-18T20:13:34.989Z,7.57
2023-01-18T20:16:20.817Z,8.00
2023-01-18T20:19:06.961Z,8.10
2023-01-18T20:21:52.853Z,7.90
2023-01-18T20:24:39.044Z,7.95
2023-01-18T20:27:25.940Z,7.88
2023-01-18T20:30:12.797Z,7.38
2023-01-18T20:32:58.968Z,7.32
2023-01-18T20:35:45.059Z,7.80
2023-01-18T20:38:32.567Z,7.57
2023-01-18T20:41:18.510Z,7.95
2023-01-18T20:44:05.517Z,7.72
2023-01-18T20:46:54.924Z,8.13
2023-01-18T20:49:41.319Z,7.60
2023-01-18T20:52:26.839Z,7.28
2023-01-18T20:55:14.612Z,8.30
2023-01-18T20:58:00.584Z,7.93
2023-01-18T21:00:47.806Z,7.20
2023-01-18T21:03:34.028Z,7.43
2023-01-18T21:06:19.928Z,7.57
2023-01-18T21:09:05.842Z,6.85
2023-01-18T21:11:51.944Z,7.07
2023-01-18T21:14:38.111Z,7.15
2023-01-18T21:17:25.273Z,7.80
2023-01-18T21:20:11.993Z,7.65
2023-01-18T21:22:58.062Z,8.43
2023-01-18T21:25:49.652Z,7.28
2023-01-18T21:28:35.439Z,7.35
2023-01-18T21:31:22.212Z,9.38
2023-01-18T21:34:09.266Z,8.57
2023-01-18T21:36:55.091Z,7.75
2023-01-18T21:39:41.030Z,8.43
2023-01-18T21:42:45.444Z,7.85
2023-01-18T21:45:49.914Z,8.25
2023-01-18T21:48:35.862Z,7.15
2023-01-18T21:51:41.870Z,7.85
2023-01-18T21:54:28.215Z,8.88
2023-01-18T21:57:13.945Z,8.45
2023-01-18T21:59:59.563Z,8.52
2023-01-18T22:02:45.380Z,8.07
2023-01-18T22:05:31.171Z,8.18
2023-01-18T22:08:18.100Z,8.10
2023-01-18T22:11:04.401Z,8.15
2023-01-18T22:13:50.252Z,8.23
2023-01-18T22:16:35.974Z,8.77
2023-01-18T22:19:21.479Z,8.25
2023-01-18T22:22:06.941Z,7.90
2023-01-18T22:24:54.328Z,9.18
2023-01-18T22:27:39.957Z,8.32
2023-01-18T22:30:25.696Z,8.50
2023-01-18T22:33:11.596Z,8.98
2023-01-18T22:35:58.329Z,8.45
2023-01-18T22:38:45.582Z,9.18
2023-01-18T22:41:32.643Z,8.40
2023-01-18T22:44:18.447Z,9.00
2023-01-18T22:47:04.562Z,8.98
2023-01-18T22:49:50.120Z,9.32
2023-01-18T22:52:35.776Z,9.45
2023-01-18T22:55:21.700Z,9.82
2023-01-18T22:58:08.716Z,10.13
2023-01-18T23:00:54.776Z,10.30
2023-01-18T23:03:40.545Z,10.40
2023-01-18T23:06:28.118Z,10.63
2023-01-18T23:09:14.722Z,9.88
2023-01-18T23:12:00.172Z,9.90
2023-01-18T23:15:06.521Z,10.40
2023-01-18T23:17:52.150Z,10.82
2023-01-18T23:20:38.226Z,11.73
2023-01-18T23:23:23.987Z,11.05
2023-01-18T23:26:10.157Z,11.20
2023-01-18T23:28:55.581Z,12.02
2023-01-18T23:31:42.870Z,11.25
2023-01-18T23:34:28.644Z,11.05
2023-01-18T23:37:14.236Z,12.18
2023-01-18T23:40:18.622Z,11.63
2023-01-18T23:43:22.586Z,13.55
2023-01-18T23:46:26.613Z,12.00
2023-01-18T23:49:32.461Z,12.90
2023-01-18T23:52:37.109Z,12.40
2023-01-18T23:55:22.732Z,13.43
2023-01-18T23:58:08.098Z,12.95
